createdAt,value
2017-05-14T00:01:18.496Z,78.80
2017-05-14T00:03:47.375Z,78.70
2017-05-14T00:06:16.400Z,78.90
2017-05-14T00:08:45.474Z,78.90
2017-05-14T00:11:14.369Z,78.80
2017-05-14T00:13:43.405Z,78.80
2017-05-14T00:16:12.280Z,79.60
2017-05-14T00:18:42.052Z,79.30
2017-05-14T00:21:11.010Z,79.50
2017-05-14T00:23:40.038Z,79.20
2017-05-14T00:26:09.069Z,78.90
2017-05-14T00:28:38.705Z,78.60
2017-05-14T00:31:07.657Z,78.70
2017-05-14T00:33:36.757Z,78.40
2017-05-14T00:36:05.633Z,78.00
2017-05-14T00:38:34.602Z,78.30
2017-05-14T00:41:03.734Z,78.50
2017-05-14T00:43:32.609Z,78.50
2017-05-14T00:46:01.552Z,78.30
2017-05-14T00:48:30.473Z,78.40
2017-05-14T00:50:59.464Z,78.60
2017-05-14T00:53:28.341Z,78.80
2017-05-14T00:55:57.286Z,78.80
2017-05-14T00:58:26.249Z,79.00
2017-05-14T01:00:55.145Z,79.20
2017-05-14T01:03:24.157Z,79.30
2017-05-14T01:05:53.872Z,79.40
2017-05-14T01:08:23.869Z,79.00
2017-05-14T01:10:52.799Z,78.50
2017-05-14T01:13:21.829Z,78.30
2017-05-14T01:15:51.000Z,78.50
2017-05-14T01:18:19.920Z,78.80
2017-05-14T01:20:48.898Z,78.80
2017-05-14T01:23:18.163Z,78.80
2017-05-14T01:25:47.100Z,78.90
2017-05-14T01:28:16.057Z,79.00
2017-05-14T01:30:45.841Z,79.30
2017-05-14T01:33:14.999Z,79.40
2017-05-14T01:35:43.886Z,79.30
2017-05-14T01:38:12.770Z,78.80
2017-05-14T01:40:41.685Z,79.00
2017-05-14T01:43:10.647Z,79.50
2017-05-14T01:45:39.562Z,79.70
2017-05-14T01:48:08.566Z,79.80
2017-05-14T01:50:37.606Z,80.00
2017-05-14T01:53:06.505Z,79.80
2017-05-14T01:55:35.422Z,80.20
2017-05-14T01:58:04.606Z,80.50
2017-05-14T02:00:33.538Z,80.20
2017-05-14T02:03:02.504Z,80.10
2017-05-14T02:05:31.465Z,80.10
2017-05-14T02:08:00.441Z,79.80
2017-05-14T02:10:30.172Z,79.60
2017-05-14T02:12:59.078Z,79.60
2017-05-14T02:15:27.995Z,79.70
2017-05-14T02:17:59.851Z,79.60
2017-05-14T02:20:28.721Z,79.30
2017-05-14T02:22:57.795Z,79.60
2017-05-14T02:25:26.733Z,79.50
2017-05-14T02:27:55.671Z,79.60
2017-05-14T02:30:25.529Z,79.20
2017-05-14T02:32:54.429Z,79.60
2017-05-14T02:35:23.310Z,79.50
2017-05-14T02:37:52.208Z,79.90
2017-05-14T02:40:21.215Z,80.20
2017-05-14T02:42:50.189Z,80.60
2017-05-14T02:45:19.103Z,80.70
2017-05-14T02:47:48.162Z,81.00
2017-05-14T02:50:17.081Z,80.90
2017-05-14T02:52:45.959Z,81.00
2017-05-14T02:55:15.043Z,81.10
2017-05-14T02:57:43.905Z,81.30
2017-05-14T03:00:13.028Z,81.10
2017-05-14T03:02:42.010Z,80.70
2017-05-14T03:05:10.885Z,80.40
2017-05-14T03:07:39.765Z,79.70
2017-05-14T03:10:08.778Z,79.80
2017-05-14T03:12:37.726Z,80.30
2017-05-14T03:15:06.621Z,80.50
2017-05-14T03:17:36.317Z,79.90
2017-05-14T03:20:05.218Z,80.20
2017-05-14T03:22:34.181Z,80.40
2017-05-14T03:25:03.122Z,80.30
2017-05-14T03:27:32.840Z,80.00
2017-05-14T03:30:01.725Z,79.90
2017-05-14T03:32:31.397Z,79.80
2017-05-14T03:35:00.281Z,80.40
2017-05-14T03:37:29.171Z,79.90
2017-05-14T03:39:58.202Z,80.40
2017-05-14T03:42:27.903Z,80.50
2017-05-14T03:44:56.775Z,80.80
2017-05-14T03:47:25.753Z,81.30
2017-05-14T03:49:54.640Z,81.70
2017-05-14T03:52:23.562Z,81.60
2017-05-14T03:54:53.225Z,81.70
2017-05-14T03:57:22.113Z,81.80
2017-05-14T03:59:51.010Z,81.40
2017-05-14T04:02:20.214Z,81.60
2017-05-14T04:04:49.190Z,81.90
2017-05-14T04:07:18.072Z,82.20
2017-05-14T04:09:47.216Z,82.20
2017-05-14T04:12:16.105Z,82.20
2017-05-14T04:14:44.988Z,82.00
2017-05-14T04:17:14.154Z,81.70
2017-05-14T04:19:43.030Z,81.30
2017-05-14T04:22:11.908Z,81.30
2017-05-14T04:24:40.833Z,81.50
2017-05-14T04:27:09.717Z,80.80
2017-05-14T04:29:38.641Z,80.90
2017-05-14T04:32:07.525Z,80.50
2017-05-14T04:34:36.419Z,80.60
2017-05-14T04:37:05.309Z,80.30
2017-05-14T04:39:34.317Z,80.30
2017-05-14T04:42:03.205Z,80.10
2017-05-14T04:44:32.082Z,79.80
2017-05-14T04:47:01.285Z,79.70
2017-05-14T04:49:30.224Z,79.00
2017-05-14T04:51:59.105Z,78.90
2017-05-14T04:54:28.964Z,78.10
2017-05-14T04:56:57.845Z,78.10
2017-05-14T04:59:26.721Z,77.90
2017-05-14T05:01:55.720Z,76.60
2017-05-14T05:04:24.595Z,75.50
2017-05-14T05:06:53.489Z,75.60
2017-05-14T05:09:22.450Z,74.30
2017-05-14T05:11:51.337Z,73.80
2017-05-14T05:14:20.213Z,72.90
2017-05-14T05:16:49.477Z,73.00
2017-05-14T05:19:18.426Z,72.60
2017-05-14T05:21:47.385Z,71.90
2017-05-14T05:24:16.359Z,72.00
2017-05-14T05:26:45.232Z,72.00
2017-05-14T05:29:14.109Z,72.00
2017-05-14T05:31:43.031Z,72.20
2017-05-14T05:34:12.049Z,71.80
2017-05-14T05:36:40.933Z,71.20
2017-05-14T05:39:09.832Z,72.40
2017-05-14T05:41:38.714Z,73.00
2017-05-14T05:44:07.706Z,70.90
2017-05-14T05:46:36.666Z,71.80
2017-05-14T05:49:05.601Z,72.70
2017-05-14T05:51:34.576Z,70.90
2017-05-14T05:54:03.452Z,69.40
2017-05-14T05:56:32.324Z,69.90
2017-05-14T05:59:01.394Z,71.30
2017-05-14T06:01:31.076Z,68.80
2017-05-14T06:04:00.383Z,68.40
2017-05-14T06:06:30.165Z,67.90
2017-05-14T06:08:59.143Z,67.90
2017-05-14T06:11:28.371Z,67.40
2017-05-14T06:13:57.897Z,67.30
2017-05-14T06:16:27.360Z,66.70
2017-05-14T06:18:56.563Z,66.20
2017-05-14T06:21:26.350Z,66.30
2017-05-14T06:23:55.871Z,67.00
2017-05-14T06:26:24.806Z,66.80
2017-05-14T06:28:54.365Z,67.70
2017-05-14T06:31:24.401Z,67.00
2017-05-14T06:33:53.720Z,65.60
2017-05-14T06:36:23.089Z,65.20
2017-05-14T06:38:52.139Z,63.20
2017-05-14T06:41:21.457Z,62.20
2017-05-14T06:43:51.217Z,61.70
2017-05-14T06:46:20.749Z,61.80
2017-05-14T06:48:49.734Z,61.60
2017-05-14T06:51:18.993Z,61.70
2017-05-14T06:53:47.996Z,61.90
2017-05-14T06:56:17.430Z,60.40
2017-05-14T06:58:46.596Z,61.50
2017-05-14T07:01:16.063Z,61.00
2017-05-14T07:03:45.469Z,60.30
2017-05-14T07:06:14.430Z,60.40
2017-05-14T07:08:43.734Z,59.80
2017-05-14T07:11:12.642Z,60.30
2017-05-14T07:13:41.857Z,60.90
2017-05-14T07:16:11.338Z,60.30
2017-05-14T07:18:41.548Z,59.80
2017-05-14T07:21:10.809Z,59.40
2017-05-14T07:23:40.241Z,58.80
2017-05-14T07:26:09.454Z,58.20
2017-05-14T07:28:38.357Z,58.00
2017-05-14T07:31:07.647Z,57.20
2017-05-14T07:33:36.595Z,56.30
2017-05-14T07:36:05.930Z,55.60
2017-05-14T07:38:35.216Z,55.60
2017-05-14T07:41:04.519Z,56.30
2017-05-14T07:43:33.805Z,56.20
2017-05-14T07:46:02.737Z,56.10
2017-05-14T07:48:31.889Z,55.00
2017-05-14T07:51:01.117Z,55.10
2017-05-14T07:53:30.403Z,54.30
2017-05-14T07:55:59.615Z,54.50
2017-05-14T07:58:28.928Z,54.60
2017-05-14T08:00:58.153Z,54.60
2017-05-14T08:03:27.029Z,55.10
2017-05-14T08:05:56.733Z,54.40
2017-05-14T08:08:25.981Z,54.40
2017-05-14T08:10:54.910Z,54.20
2017-05-14T08:13:24.180Z,54.30
2017-05-14T08:15:53.087Z,54.90
2017-05-14T08:18:22.490Z,54.30
2017-05-14T08:20:51.703Z,53.70
2017-05-14T08:23:20.888Z,54.40
2017-05-14T08:25:50.786Z,53.40
2017-05-14T08:28:19.999Z,51.40
2017-05-14T08:30:49.169Z,52.80
2017-05-14T08:33:18.134Z,55.40
2017-05-14T08:35:47.373Z,53.30
2017-05-14T08:38:16.281Z,51.80
2017-05-14T08:40:45.786Z,52.30
2017-05-14T08:43:15.079Z,50.90
2017-05-14T08:45:44.298Z,52.20
2017-05-14T08:48:13.570Z,50.90
2017-05-14T08:50:42.496Z,52.00
2017-05-14T08:53:11.711Z,50.80
2017-05-14T08:55:40.670Z,50.70
2017-05-14T08:58:09.859Z,50.90
2017-05-14T09:00:39.138Z,50.80
2017-05-14T09:03:08.106Z,50.40
2017-05-14T09:05:37.353Z,49.90
2017-05-14T09:08:06.276Z,49.50
2017-05-14T09:10:35.512Z,51.20
2017-05-14T09:13:04.444Z,48.30
2017-05-14T09:15:33.677Z,47.90
2017-05-14T09:18:02.591Z,47.80
2017-05-14T09:20:31.997Z,47.60
2017-05-14T09:23:00.914Z,48.30
2017-05-14T09:25:30.086Z,47.30
2017-05-14T09:27:59.025Z,46.50
2017-05-14T09:30:28.517Z,47.80
2017-05-14T09:32:58.607Z,45.70
2017-05-14T09:35:27.809Z,46.20
2017-05-14T09:37:57.035Z,46.10
2017-05-14T09:40:26.285Z,46.30
2017-05-14T09:42:55.193Z,46.00
2017-05-14T09:45:25.503Z,45.60
2017-05-14T09:47:54.416Z,46.10
2017-05-14T09:50:23.554Z,44.80
2017-05-14T09:52:53.411Z,44.90
2017-05-14T09:55:22.774Z,44.40
2017-05-14T09:57:52.424Z,44.50
2017-05-14T10:00:21.724Z,44.40
2017-05-14T10:02:50.659Z,45.20
2017-05-14T10:05:20.216Z,43.90
2017-05-14T10:07:49.322Z,45.10
2017-05-14T10:10:18.237Z,46.20
2017-05-14T10:12:47.586Z,47.30
2017-05-14T10:15:16.545Z,43.00
2017-05-14T10:17:45.721Z,44.40
2017-05-14T10:20:14.692Z,45.30
2017-05-14T10:22:44.196Z,46.10
2017-05-14T10:25:13.604Z,42.20
2017-05-14T10:27:42.563Z,42.60
2017-05-14T10:30:11.861Z,43.40
2017-05-14T10:32:40.813Z,39.80
2017-05-14T10:35:10.440Z,38.60
2017-05-14T10:37:39.569Z,41.40
2017-05-14T10:40:08.967Z,41.40
2017-05-14T10:42:37.925Z,40.50
2017-05-14T10:45:07.123Z,38.20
2017-05-14T10:47:36.490Z,40.70
2017-05-14T10:50:06.313Z,42.70
2017-05-14T10:52:35.549Z,45.10
2017-05-14T10:55:05.250Z,50.80
2017-05-14T10:57:34.503Z,48.10
2017-05-14T11:00:03.459Z,49.50
2017-05-14T11:02:32.493Z,56.60
2017-05-14T11:05:01.714Z,61.30
2017-05-14T11:07:31.055Z,63.20
2017-05-14T11:10:00.082Z,69.70
2017-05-14T11:12:29.034Z,61.10
2017-05-14T11:14:58.334Z,68.90
2017-05-14T11:17:27.983Z,63.30
2017-05-14T11:19:57.387Z,60.60
2017-05-14T11:22:26.299Z,65.90
2017-05-14T11:24:55.461Z,58.90
2017-05-14T11:27:24.416Z,65.70
2017-05-14T11:29:53.675Z,66.70
2017-05-14T11:32:22.869Z,59.40
2017-05-14T11:34:51.924Z,57.70
2017-05-14T11:37:21.394Z,52.30
2017-05-14T11:39:50.319Z,50.90
2017-05-14T11:42:20.285Z,53.00
2017-05-14T11:44:49.209Z,47.80
2017-05-14T11:47:18.420Z,47.10
2017-05-14T11:49:48.112Z,44.70
2017-05-14T11:52:17.447Z,40.80
2017-05-14T11:54:46.353Z,39.90
2017-05-14T11:57:15.321Z,41.40
2017-05-14T11:59:44.728Z,41.00
2017-05-14T12:02:13.606Z,37.00
2017-05-14T12:04:43.361Z,36.30
2017-05-14T12:07:12.278Z,34.90
2017-05-14T12:09:41.157Z,39.90
2017-05-14T12:12:10.184Z,34.50
2017-05-14T12:14:39.804Z,35.80
2017-05-14T12:17:08.925Z,30.40
2017-05-14T12:19:37.801Z,31.70
2017-05-14T12:22:06.687Z,29.90
2017-05-14T12:24:36.346Z,33.40
2017-05-14T12:27:05.221Z,28.60
2017-05-14T12:29:34.104Z,27.70
2017-05-14T12:32:03.182Z,26.80
2017-05-14T12:34:32.060Z,25.70
2017-05-14T12:37:00.940Z,27.70
2017-05-14T12:39:30.585Z,25.90
2017-05-14T12:41:59.468Z,25.20
2017-05-14T12:44:28.345Z,24.50
2017-05-14T12:46:57.261Z,24.00
2017-05-14T12:49:26.145Z,24.20
2017-05-14T12:51:55.012Z,25.10
2017-05-14T12:54:23.926Z,27.00
2017-05-14T12:56:52.804Z,28.30
2017-05-14T12:59:21.681Z,29.80
2017-05-14T13:01:51.321Z,30.90
2017-05-14T13:04:20.198Z,30.00
2017-05-14T13:06:49.193Z,32.60
2017-05-14T13:09:18.073Z,42.40
2017-05-14T13:11:46.950Z,38.90
2017-05-14T13:14:15.873Z,44.80
2017-05-14T13:16:44.785Z,52.50
2017-05-14T13:19:13.662Z,57.70
2017-05-14T13:21:42.665Z,52.20
2017-05-14T13:24:12.402Z,60.30
2017-05-14T13:26:41.281Z,62.90
2017-05-14T13:29:10.200Z,65.30
2017-05-14T13:31:39.535Z,67.90
2017-05-14T13:34:08.404Z,68.40
2017-05-14T13:36:37.404Z,70.40
2017-05-14T13:39:06.329Z,69.50
2017-05-14T13:41:35.208Z,70.70
2017-05-14T13:44:04.101Z,72.10
2017-05-14T13:46:32.977Z,72.70
2017-05-14T13:49:01.995Z,76.30
2017-05-14T13:51:30.874Z,76.70
2017-05-14T13:53:59.757Z,80.10
2017-05-14T13:56:28.662Z,80.10
2017-05-14T13:58:57.666Z,82.70
2017-05-14T14:01:26.677Z,80.10
2017-05-14T14:03:55.553Z,81.30
2017-05-14T14:06:24.429Z,83.80
2017-05-14T14:08:53.432Z,82.60
2017-05-14T14:11:22.300Z,82.00
2017-05-14T14:13:51.179Z,87.30
2017-05-14T14:16:20.303Z,82.10
2017-05-14T14:18:49.187Z,85.60
2017-05-14T14:21:18.067Z,85.80
2017-05-14T14:23:46.969Z,84.60
2017-05-14T14:26:15.841Z,83.70
2017-05-14T14:28:44.717Z,83.90
2017-05-14T14:31:13.694Z,80.50
2017-05-14T14:33:43.309Z,83.00
2017-05-14T14:36:12.943Z,79.20
2017-05-14T14:38:41.869Z,81.00
2017-05-14T14:41:10.830Z,77.40
2017-05-14T14:43:39.722Z,80.10
2017-05-14T14:46:08.612Z,81.30
2017-05-14T14:48:37.534Z,85.00
2017-05-14T14:51:06.398Z,81.40
2017-05-14T14:53:35.268Z,84.10
2017-05-14T14:56:04.171Z,86.60
2017-05-14T14:58:33.042Z,83.90
2017-05-14T15:01:01.987Z,81.80
2017-05-14T15:03:30.856Z,82.10
2017-05-14T15:05:59.741Z,82.80
2017-05-14T15:08:28.642Z,81.90
2017-05-14T15:10:57.518Z,81.20
2017-05-14T15:13:26.415Z,81.40
2017-05-14T15:15:55.296Z,81.80
2017-05-14T15:18:24.203Z,80.30
2017-05-14T15:20:53.077Z,77.60
2017-05-14T15:23:21.953Z,75.50
2017-05-14T15:25:51.167Z,79.00
2017-05-14T15:28:20.037Z,78.70
2017-05-14T15:30:49.645Z,83.00
2017-05-14T15:33:18.541Z,80.90
2017-05-14T15:35:47.411Z,79.30
2017-05-14T15:38:17.022Z,82.50
2017-05-14T15:40:46.765Z,80.90
2017-05-14T15:43:15.640Z,78.40
2017-05-14T15:45:44.515Z,81.50
2017-05-14T15:48:14.172Z,82.60
2017-05-14T15:50:43.049Z,83.50
2017-05-14T15:53:11.927Z,83.00
2017-05-14T15:55:40.843Z,83.80
2017-05-14T15:58:09.719Z,83.00
2017-05-14T16:00:38.587Z,84.50
2017-05-14T16:03:07.588Z,82.70
2017-05-14T16:05:36.485Z,84.60
2017-05-14T16:08:05.358Z,87.10
2017-05-14T16:10:35.293Z,85.80
2017-05-14T16:13:04.168Z,84.90
2017-05-14T16:15:33.046Z,84.00
2017-05-14T16:18:02.688Z,83.60
2017-05-14T16:20:31.560Z,84.20
2017-05-14T16:23:00.482Z,85.40
2017-05-14T16:25:29.355Z,84.20
2017-05-14T16:27:58.234Z,83.30
2017-05-14T16:30:27.153Z,83.20
2017-05-14T16:32:57.009Z,84.50
2017-05-14T16:35:26.062Z,84.10
2017-05-14T16:37:54.973Z,83.80
2017-05-14T16:40:23.857Z,82.90
2017-05-14T16:42:52.733Z,83.10
2017-05-14T16:45:21.648Z,84.60
2017-05-14T16:47:50.534Z,85.40
2017-05-14T16:50:19.445Z,83.10
2017-05-14T16:52:48.325Z,84.90
2017-05-14T16:55:17.221Z,83.60
2017-05-14T16:57:46.217Z,86.20
2017-05-14T17:00:15.097Z,86.70
2017-05-14T17:02:43.973Z,84.30
2017-05-14T17:05:12.881Z,83.50
2017-05-14T17:07:41.770Z,83.00
2017-05-14T17:10:10.686Z,82.40
2017-05-14T17:12:40.305Z,84.00
2017-05-14T17:15:10.145Z,84.90
2017-05-14T17:17:39.022Z,85.80
2017-05-14T17:20:07.903Z,86.80
2017-05-14T17:22:36.836Z,88.40
2017-05-14T17:25:05.762Z,85.80
2017-05-14T17:27:34.671Z,87.00
2017-05-14T17:30:04.310Z,88.30
2017-05-14T17:32:33.225Z,89.30
2017-05-14T17:35:02.057Z,89.20
2017-05-14T17:37:31.287Z,89.60
2017-05-14T17:40:00.166Z,90.00
2017-05-14T17:42:29.030Z,88.40
2017-05-14T17:44:58.718Z,90.30
2017-05-14T17:47:27.587Z,90.30
2017-05-14T17:49:56.516Z,91.10
2017-05-14T17:52:26.269Z,90.90
2017-05-14T17:54:55.143Z,91.00
2017-05-14T17:57:24.022Z,90.90
2017-05-14T17:59:52.937Z,91.10
2017-05-14T18:02:21.824Z,91.30
2017-05-14T18:04:50.697Z,91.40
2017-05-14T18:07:19.613Z,91.40
2017-05-14T18:09:48.770Z,91.50
2017-05-14T18:12:18.382Z,91.80
2017-05-14T18:14:48.038Z,91.80
2017-05-14T18:17:16.921Z,91.80
2017-05-14T18:19:45.824Z,91.90
2017-05-14T18:22:14.749Z,92.00
2017-05-14T18:24:44.380Z,92.10
2017-05-14T18:27:13.260Z,92.10
2017-05-14T18:29:42.927Z,92.40
2017-05-14T18:32:11.825Z,92.50
2017-05-14T18:34:40.699Z,92.30
2017-05-14T18:37:09.616Z,92.70
2017-05-14T18:39:38.561Z,91.90
2017-05-14T18:42:07.436Z,91.70
2017-05-14T18:44:36.551Z,91.30
2017-05-14T18:47:05.421Z,91.70
2017-05-14T18:49:34.298Z,92.20
2017-05-14T18:52:03.951Z,91.90
2017-05-14T18:54:32.825Z,91.70
2017-05-14T18:57:01.712Z,92.00
2017-05-14T18:59:30.620Z,92.00
2017-05-14T19:01:59.501Z,91.90
2017-05-14T19:04:28.374Z,91.50
2017-05-14T19:06:57.489Z,92.00
2017-05-14T19:09:26.366Z,91.80
2017-05-14T19:11:55.236Z,91.70
2017-05-14T19:14:24.903Z,91.80
2017-05-14T19:16:53.769Z,90.70
2017-05-14T19:19:22.662Z,91.40
2017-05-14T19:21:51.752Z,91.70
2017-05-14T19:24:20.634Z,91.60
2017-05-14T19:26:49.530Z,90.40
2017-05-14T19:29:19.239Z,90.60
2017-05-14T19:31:48.910Z,89.80
2017-05-14T19:34:17.825Z,89.70
2017-05-14T19:36:46.702Z,88.90
2017-05-14T19:39:16.319Z,90.60
2017-05-14T19:41:45.232Z,90.50
2017-05-14T19:44:14.106Z,90.50
2017-05-14T19:46:42.981Z,90.90
2017-05-14T19:49:12.624Z,90.80
2017-05-14T19:51:41.501Z,90.70
2017-05-14T19:54:10.377Z,90.70
2017-05-14T19:56:39.282Z,91.50
2017-05-14T19:59:08.152Z,90.80
2017-05-14T20:01:37.769Z,91.10
2017-05-14T20:04:06.672Z,91.40
2017-05-14T20:06:35.545Z,91.60
2017-05-14T20:09:04.440Z,91.90
2017-05-14T20:11:34.069Z,91.40
2017-05-14T20:14:02.939Z,89.50
2017-05-14T20:16:31.820Z,90.70
2017-05-14T20:19:02.281Z,91.10
2017-05-14T20:21:31.159Z,91.30
2017-05-14T20:24:00.072Z,91.30
2017-05-14T20:26:28.945Z,91.40
2017-05-14T20:28:57.821Z,89.80
2017-05-14T20:31:27.021Z,90.80
2017-05-14T20:33:55.903Z,90.20
2017-05-14T20:36:25.513Z,90.90
2017-05-14T20:38:54.741Z,91.20
2017-05-14T20:41:23.620Z,91.50
2017-05-14T20:43:52.488Z,91.60
2017-05-14T20:46:22.329Z,91.70
2017-05-14T20:48:51.205Z,91.70
2017-05-14T20:51:20.082Z,91.60
2017-05-14T20:53:49.717Z,91.40
2017-05-14T20:56:18.625Z,90.50
2017-05-14T20:58:47.496Z,90.90
2017-05-14T21:01:16.378Z,90.70
2017-05-14T21:03:45.285Z,90.00
2017-05-14T21:06:14.166Z,90.20
2017-05-14T21:08:43.037Z,86.40
2017-05-14T21:11:12.670Z,84.40
2017-05-14T21:13:41.873Z,83.70
2017-05-14T21:16:10.751Z,85.20
2017-05-14T21:18:39.664Z,83.60
2017-05-14T21:21:08.557Z,84.90
2017-05-14T21:23:37.430Z,82.20
2017-05-14T21:26:06.301Z,83.80
2017-05-14T21:28:35.213Z,83.00
2017-05-14T21:31:04.085Z,82.70
2017-05-14T21:33:32.965Z,81.40
2017-05-14T21:36:02.809Z,81.90
2017-05-14T21:38:31.693Z,81.10
2017-05-14T21:41:00.571Z,81.70
2017-05-14T21:43:29.493Z,81.50
2017-05-14T21:45:58.362Z,81.10
2017-05-14T21:48:27.239Z,81.40
2017-05-14T21:50:56.358Z,80.70
2017-05-14T21:53:25.228Z,81.60
2017-05-14T21:55:54.106Z,80.20
2017-05-14T21:58:24.158Z,82.10
2017-05-14T22:00:53.029Z,83.00
2017-05-14T22:03:21.901Z,83.40
2017-05-14T22:05:51.563Z,81.30
2017-05-14T22:08:20.445Z,81.60
2017-05-14T22:10:49.318Z,81.70
2017-05-14T22:13:18.418Z,81.50
2017-05-14T22:15:47.289Z,82.60
2017-05-14T22:18:16.170Z,82.60
2017-05-14T22:20:45.809Z,82.60
2017-05-14T22:23:14.685Z,82.30
2017-05-14T22:25:43.602Z,81.80
2017-05-14T22:28:12.485Z,84.40
2017-05-14T22:30:41.356Z,82.00
2017-05-14T22:33:10.362Z,84.30
2017-05-14T22:35:39.236Z,81.50
2017-05-14T22:38:08.129Z,80.40
2017-05-14T22:40:37.342Z,81.30
2017-05-14T22:43:06.217Z,81.20
2017-05-14T22:45:35.094Z,83.80
2017-05-14T22:48:04.753Z,84.00
2017-05-14T22:50:33.625Z,82.70
2017-05-14T22:53:02.505Z,82.40
2017-05-14T22:55:31.428Z,82.90
2017-05-14T22:58:00.309Z,84.00
2017-05-14T23:00:29.185Z,81.00
2017-05-14T23:02:58.100Z,82.70
2017-05-14T23:05:27.013Z,82.10
2017-05-14T23:07:55.887Z,82.50
2017-05-14T23:10:24.760Z,85.00
2017-05-14T23:12:53.658Z,85.10
2017-05-14T23:15:22.529Z,83.80
2017-05-14T23:17:51.430Z,84.50
2017-05-14T23:20:20.310Z,85.30
2017-05-14T23:22:49.213Z,85.10
2017-05-14T23:25:18.214Z,84.80
2017-05-14T23:27:47.090Z,84.80
2017-05-14T23:30:15.959Z,83.80
2017-05-14T23:32:44.888Z,85.40
2017-05-14T23:35:13.759Z,84.60
2017-05-14T23:37:42.635Z,85.50
2017-05-14T23:40:11.842Z,83.60
2017-05-14T23:42:40.739Z,83.30
2017-05-14T23:45:09.604Z,83.60
2017-05-14T23:47:38.516Z,84.00
2017-05-14T23:50:07.393Z,85.80
2017-05-14T23:52:36.276Z,86.50
2017-05-14T23:55:05.929Z,85.70
2017-05-14T23:57:34.814Z,84.20
